createdAt,value
2022-08-20T00:02:16.560Z,97112.28
2022-08-20T00:04:45.742Z,97109.41
2022-08-20T00:07:14.535Z,97110.44
2022-08-20T00:09:43.587Z,97110.44
2022-08-20T00:12:13.576Z,97120.31
2022-08-20T00:14:42.167Z,97121.13
2022-08-20T00:17:11.957Z,97117.63
2022-08-20T00:19:40.498Z,97120.31
2022-08-20T00:22:08.956Z,97120.31
2022-08-20T00:24:37.701Z,97118.47
2022-08-20T00:27:06.266Z,97112.28
2022-08-20T00:29:35.229Z,97114.97
2022-08-20T00:32:03.797Z,97114.75
2022-08-20T00:34:33.580Z,97111.47
2022-08-20T00:37:02.062Z,97110.44
2022-08-20T00:39:30.636Z,97115.78
2022-08-20T00:41:59.373Z,97119.50
2022-08-20T00:44:27.909Z,97114.13
2022-08-20T00:46:56.522Z,97108.78
2022-08-20T00:49:27.962Z,97114.97
2022-08-20T00:52:02.196Z,97110.44
2022-08-20T00:54:33.631Z,97115.78
2022-08-20T00:57:04.911Z,97113.09
2022-08-20T00:59:37.234Z,97105.91
2022-08-20T01:02:09.101Z,97106.94
2022-08-20T01:04:38.290Z,97106.94
2022-08-20T01:07:08.501Z,97106.94
2022-08-20T01:09:57.794Z,97102.41
2022-08-20T01:12:28.982Z,97105.09
2022-08-20T01:14:59.842Z,97106.09
2022-08-20T01:17:30.111Z,97112.47
2022-08-20T01:20:07.889Z,97108.59
2022-08-20T01:23:00.190Z,97106.94
2022-08-20T01:25:34.034Z,97114.13
2022-08-20T01:28:04.792Z,97108.78
2022-08-20T01:30:34.038Z,97113.31
2022-08-20T01:33:02.899Z,97108.78
2022-08-20T01:35:32.654Z,97107.94
2022-08-20T01:38:01.382Z,97113.31
2022-08-20T01:40:41.556Z,97113.31
2022-08-20T01:43:12.346Z,97106.09
2022-08-20T01:45:43.014Z,97103.44
2022-08-20T01:48:12.070Z,97099.09
2022-08-20T01:50:43.330Z,97107.13
2022-08-20T01:53:20.108Z,97102.59
2022-08-20T01:55:48.709Z,97105.28
2022-08-20T01:58:18.460Z,97103.44
2022-08-20T02:00:47.462Z,97106.28
2022-08-20T02:03:16.003Z,97100.94
2022-08-20T02:05:45.143Z,97101.78
2022-08-20T02:08:13.580Z,97105.28
2022-08-20T02:10:42.003Z,97105.28
2022-08-20T02:13:10.502Z,97109.81
2022-08-20T02:15:43.082Z,97107.94
2022-08-20T02:18:14.252Z,97109.81
2022-08-20T02:20:43.392Z,97104.44
2022-08-20T02:23:13.032Z,97100.13
2022-08-20T02:25:43.582Z,97111.66
2022-08-20T02:28:14.127Z,97105.47
2022-08-20T02:30:46.949Z,97109.81
2022-08-20T02:33:18.193Z,97107.13
2022-08-20T02:35:48.232Z,97101.97
2022-08-20T02:38:17.020Z,97108.16
2022-08-20T02:40:49.054Z,97108.16
2022-08-20T02:43:20.169Z,97110.00
2022-08-20T02:45:50.137Z,97107.31
2022-08-20T02:48:20.893Z,97103.44
2022-08-20T02:50:54.170Z,97107.31
2022-08-20T02:53:23.434Z,97115.34
2022-08-20T02:55:52.009Z,97111.00
2022-08-20T02:58:21.322Z,97109.16
2022-08-20T03:00:51.770Z,97098.47
2022-08-20T03:03:22.607Z,97099.69
2022-08-20T03:05:52.986Z,97103.81
2022-08-20T03:08:22.609Z,97112.88
2022-08-20T03:10:52.379Z,97105.84
2022-08-20T03:13:21.634Z,97106.69
2022-08-20T03:15:57.952Z,97110.19
2022-08-20T03:18:30.189Z,97104.19
2022-08-20T03:20:58.676Z,97112.88
2022-08-20T03:23:27.158Z,97101.34
2022-08-20T03:25:55.773Z,97107.50
2022-08-20T03:28:24.278Z,97113.69
2022-08-20T03:30:54.731Z,97107.50
2022-08-20T03:33:23.565Z,97107.50
2022-08-20T03:35:52.301Z,97111.00
2022-08-20T03:38:33.234Z,97108.34
2022-08-20T03:41:02.405Z,97111.22
2022-08-20T03:43:31.334Z,97113.88
2022-08-20T03:46:01.379Z,97112.88
2022-08-20T03:48:30.209Z,97118.22
2022-08-20T03:51:00.853Z,97120.91
2022-08-20T03:53:31.535Z,97116.56
2022-08-20T03:56:03.284Z,97129.31
2022-08-20T03:58:35.883Z,97128.28
2022-08-20T04:01:36.867Z,97137.97
2022-08-20T04:03:58.686Z,97135.28
2022-08-20T04:06:27.777Z,97137.16
2022-08-20T04:08:56.281Z,97131.59
2022-08-20T04:11:24.844Z,97139.63
2022-08-20T04:13:53.290Z,97142.50
2022-08-20T04:16:24.248Z,97140.66
2022-08-20T04:19:01.335Z,97138.16
2022-08-20T04:21:33.089Z,97142.50
2022-08-20T04:24:02.271Z,97141.03
2022-08-20T04:26:30.984Z,97148.25
2022-08-20T04:28:59.491Z,97142.88
2022-08-20T04:31:33.046Z,97152.56
2022-08-20T04:34:02.178Z,97158.94
2022-08-20T04:36:30.750Z,97150.28
2022-08-20T04:38:59.260Z,97163.22
2022-08-20T04:41:27.984Z,97156.81
2022-08-20T04:43:58.032Z,97149.81
2022-08-20T04:46:29.330Z,97153.69
2022-08-20T04:48:58.162Z,97152.22
2022-08-20T04:51:27.063Z,97149.56
2022-08-20T04:53:57.411Z,97166.44
2022-08-20T04:56:27.749Z,97171.16
2022-08-20T04:58:59.068Z,97168.47
2022-08-20T05:01:29.994Z,97171.16
2022-08-20T05:03:59.202Z,97179.38
2022-08-20T05:06:29.989Z,97174.22
2022-08-20T05:08:59.720Z,97174.84
2022-08-20T05:11:33.773Z,97178.53
2022-08-20T05:14:05.425Z,97171.53
2022-08-20T05:16:38.779Z,97181.22
2022-08-20T05:19:08.640Z,97185.09
2022-08-20T05:21:37.930Z,97179.75
2022-08-20T05:24:06.788Z,97183.50
2022-08-20T05:26:35.395Z,97183.31
2022-08-20T05:29:06.748Z,97181.47
2022-08-20T05:31:37.506Z,97185.16
2022-08-20T05:34:09.812Z,97193.19
2022-08-20T05:36:40.044Z,97188.03
2022-08-20T05:39:09.313Z,97189.50
2022-08-20T05:41:37.865Z,97192.19
2022-08-20T05:44:10.034Z,97186.81
2022-08-20T05:46:41.113Z,97193.19
2022-08-20T05:49:10.016Z,97194.41
2022-08-20T05:51:38.482Z,97198.75
2022-08-20T05:54:07.395Z,97192.75
2022-08-20T05:56:36.336Z,97196.25
2022-08-20T05:59:07.138Z,97196.25
2022-08-20T06:01:38.023Z,97205.94
2022-08-20T06:04:26.743Z,97197.91
2022-08-20T06:06:57.595Z,97201.41
2022-08-20T06:09:31.246Z,97207.59
2022-08-20T06:12:02.080Z,97200.41
2022-08-20T06:14:31.160Z,97212.94
2022-08-20T06:17:05.371Z,97210.47
2022-08-20T06:19:36.516Z,97212.31
2022-08-20T06:22:06.871Z,97199.13
2022-08-20T06:24:46.855Z,97205.31
2022-08-20T06:27:16.887Z,97213.31
2022-08-20T06:29:45.668Z,97212.50
2022-08-20T06:32:15.241Z,97218.03
2022-08-20T06:34:49.824Z,97208.53
2022-08-20T06:37:21.860Z,97202.38
2022-08-20T06:39:50.884Z,97206.69
2022-08-20T06:42:20.836Z,97210.19
2022-08-20T06:44:50.901Z,97214.72
2022-08-20T06:47:20.493Z,97211.41
2022-08-20T06:49:50.311Z,97211.22
2022-08-20T06:52:19.019Z,97207.72
2022-08-20T06:54:48.057Z,97212.63
2022-08-20T06:57:17.322Z,97206.25
2022-08-20T06:59:49.037Z,97203.56
2022-08-20T07:02:30.112Z,97206.06
2022-08-20T07:05:00.481Z,97207.06
2022-08-20T07:07:29.051Z,97208.09
2022-08-20T07:10:01.643Z,97212.44
2022-08-20T07:12:30.187Z,97222.94
2022-08-20T07:14:58.665Z,97221.47
2022-08-20T07:17:27.173Z,97230.50
2022-08-20T07:19:55.584Z,97227.66
2022-08-20T07:22:25.864Z,97231.53
2022-08-20T07:24:54.303Z,97229.00
2022-08-20T07:27:23.636Z,97231.88
2022-08-20T07:30:12.879Z,97229.38
2022-08-20T07:32:45.355Z,97236.41
2022-08-20T07:35:15.578Z,97238.25
2022-08-20T07:37:47.068Z,97241.47
2022-08-20T07:40:18.239Z,97250.16
2022-08-20T07:42:50.342Z,97246.28
2022-08-20T07:45:19.487Z,97240.72
2022-08-20T07:47:49.370Z,97239.72
2022-08-20T07:50:20.161Z,97244.63
2022-08-20T07:52:52.546Z,97256.13
2022-08-20T07:55:22.416Z,97257.97
2022-08-20T07:57:51.745Z,97259.00
2022-08-20T08:00:24.301Z,97258.34
2022-08-20T08:02:52.936Z,97259.38
2022-08-20T08:05:21.669Z,97259.00
2022-08-20T08:07:52.220Z,97257.16
2022-08-20T08:10:23.627Z,97260.84
2022-08-20T08:12:54.913Z,97263.34
2022-08-20T08:15:25.242Z,97262.50
2022-08-20T08:17:55.468Z,97266.00
2022-08-20T08:20:24.361Z,97263.34
2022-08-20T08:22:54.537Z,97273.22
2022-08-20T08:25:23.056Z,97281.41
2022-08-20T08:27:51.577Z,97277.09
2022-08-20T08:30:20.799Z,97270.91
2022-08-20T08:33:06.732Z,97266.19
2022-08-20T08:35:35.356Z,97270.53
2022-08-20T08:38:05.149Z,97276.72
2022-08-20T08:40:35.147Z,97271.38
2022-08-20T08:43:04.580Z,97273.84
2022-08-20T08:45:36.777Z,97273.03
2022-08-20T08:48:05.990Z,97275.69
2022-08-20T08:50:54.005Z,97283.72
2022-08-20T08:53:27.653Z,97280.59
2022-08-20T08:55:56.143Z,97273.41
2022-08-20T08:58:24.675Z,97282.25
2022-08-20T09:00:56.371Z,97283.06
2022-08-20T09:03:29.380Z,97282.69
2022-08-20T09:06:02.153Z,97282.06
2022-08-20T09:08:34.079Z,97273.84
2022-08-20T09:11:04.415Z,97290.72
2022-08-20T09:13:33.133Z,97290.53
2022-08-20T09:16:01.910Z,97295.06
2022-08-20T09:18:30.400Z,97289.72
2022-08-20T09:20:59.017Z,97290.53
2022-08-20T09:23:27.530Z,97289.53
2022-08-20T09:25:57.563Z,97289.72
2022-08-20T09:28:26.565Z,97291.38
2022-08-20T09:31:01.302Z,97294.03
2022-08-20T09:33:33.222Z,97295.75
2022-08-20T09:36:01.715Z,97293.88
2022-08-20T09:38:31.247Z,97289.53
2022-08-20T09:41:01.168Z,97287.72
2022-08-20T09:43:29.661Z,97285.88
2022-08-20T09:45:58.122Z,97298.22
2022-08-20T09:48:29.765Z,97298.03
2022-08-20T09:51:01.312Z,97291.66
2022-08-20T09:53:30.796Z,97290.84
2022-08-20T09:56:01.234Z,97294.34
2022-08-20T09:58:35.342Z,97301.34
2022-08-20T10:01:08.123Z,97297.03
2022-08-20T10:03:43.496Z,97290.66
2022-08-20T10:06:14.736Z,97295.00
2022-08-20T10:08:43.396Z,97290.66
2022-08-20T10:11:13.413Z,97300.34
2022-08-20T10:13:42.035Z,97299.31
2022-08-20T10:16:10.511Z,97294.78
2022-08-20T10:18:38.969Z,97293.97
2022-08-20T10:21:10.717Z,97296.47
2022-08-20T10:23:39.275Z,97289.44
2022-08-20T10:26:08.822Z,97284.94
2022-08-20T10:28:38.890Z,97290.09
2022-08-20T10:31:08.288Z,97282.06
2022-08-20T10:33:37.950Z,97286.41
2022-08-20T10:36:10.842Z,97284.56
2022-08-20T10:38:39.741Z,97288.88
2022-08-20T10:41:08.961Z,97292.38
2022-08-20T10:43:38.774Z,97289.72
2022-08-20T10:46:07.561Z,97288.88
2022-08-20T10:48:36.150Z,97293.22
2022-08-20T10:51:04.898Z,97283.53
2022-08-20T10:53:33.755Z,97294.88
2022-08-20T10:56:02.462Z,97291.19
2022-08-20T10:58:37.629Z,97290.16
2022-08-20T11:01:10.450Z,97291.00
2022-08-20T11:03:38.978Z,97297.19
2022-08-20T11:06:07.928Z,97286.47
2022-08-20T11:08:36.407Z,97287.50
2022-08-20T11:11:05.857Z,97291.63
2022-08-20T11:13:35.006Z,97292.47
2022-08-20T11:16:04.984Z,97294.31
2022-08-20T11:18:34.904Z,97287.94
2022-08-20T11:21:03.629Z,97283.41
2022-08-20T11:23:32.086Z,97279.72
2022-08-20T11:26:01.873Z,97278.72
2022-08-20T11:28:33.141Z,97275.00
2022-08-20T11:31:02.341Z,97270.47
2022-08-20T11:33:30.816Z,97272.13
2022-08-20T11:36:00.903Z,97266.38
2022-08-20T11:38:30.335Z,97263.50
2022-08-20T11:40:59.308Z,97264.97
2022-08-20T11:43:27.783Z,97269.31
2022-08-20T11:45:57.292Z,97262.94
2022-08-20T11:48:25.805Z,97261.09
2022-08-20T11:50:55.220Z,97257.41
2022-08-20T11:53:25.139Z,97254.53
2022-08-20T11:55:54.003Z,97257.03
2022-08-20T11:58:22.624Z,97258.03
2022-08-20T12:00:51.198Z,97247.34
2022-08-20T12:03:19.683Z,97258.03
2022-08-20T12:05:48.866Z,97261.56
2022-08-20T12:08:25.120Z,97258.69
2022-08-20T12:10:59.148Z,97254.16
2022-08-20T12:13:30.878Z,97244.91
2022-08-20T12:16:16.246Z,97240.38
2022-08-20T12:18:44.719Z,97255.44
2022-08-20T12:21:13.204Z,97260.59
2022-08-20T12:23:41.782Z,97263.28
2022-08-20T12:26:11.952Z,97265.13
2022-08-20T12:28:40.549Z,97258.09
2022-08-20T12:31:08.973Z,97259.97
2022-08-20T12:33:37.409Z,97261.63
2022-08-20T12:36:06.370Z,97265.94
2022-08-20T12:38:34.921Z,97261.63
2022-08-20T12:41:03.348Z,97257.91
2022-08-20T12:43:33.197Z,97257.09
2022-08-20T12:46:01.633Z,97259.75
2022-08-20T12:48:30.129Z,97260.59
2022-08-20T12:50:58.629Z,97272.13
2022-08-20T12:53:27.168Z,97272.13
2022-08-20T12:55:55.635Z,97266.78
2022-08-20T12:58:24.674Z,97271.94
2022-08-20T13:00:54.453Z,97263.09
2022-08-20T13:03:22.885Z,97256.72
2022-08-20T13:05:51.327Z,97260.22
2022-08-20T13:08:20.046Z,97262.69
2022-08-20T13:10:48.815Z,97263.72
2022-08-20T13:13:20.547Z,97251.34
2022-08-20T13:15:51.061Z,97243.97
2022-08-20T13:18:21.481Z,97239.44
2022-08-20T13:20:50.275Z,97240.25
2022-08-20T13:23:18.753Z,97246.63
2022-08-20T13:25:47.451Z,97252.81
2022-08-20T13:28:15.876Z,97260.47
2022-08-20T13:30:44.326Z,97263.16
2022-08-20T13:33:12.753Z,97263.78
2022-08-20T13:35:42.550Z,97260.09
2022-08-20T13:38:11.031Z,97257.41
2022-08-20T13:40:40.186Z,97248.53
2022-08-20T13:43:12.040Z,97258.22
2022-08-20T13:45:41.806Z,97250.19
2022-08-20T13:48:14.801Z,97257.22
2022-08-20T13:50:47.292Z,97254.34
2022-08-20T13:53:17.161Z,97236.63
2022-08-20T13:55:45.911Z,97238.09
2022-08-20T13:58:14.426Z,97243.44
2022-08-20T14:00:42.994Z,97250.66
2022-08-20T14:03:12.236Z,97247.78
2022-08-20T14:05:42.491Z,97237.06
2022-08-20T14:08:14.022Z,97237.88
2022-08-20T14:10:43.593Z,97246.13
2022-08-20T14:13:15.369Z,97240.56
2022-08-20T14:15:44.690Z,97255.81
2022-08-20T14:18:14.339Z,97255.81
2022-08-20T14:20:45.571Z,97254.34
2022-08-20T14:23:16.100Z,97247.34
2022-08-20T14:25:46.686Z,97250.00
2022-08-20T14:28:18.212Z,97253.50
2022-08-20T14:30:52.572Z,97250.00
2022-08-20T14:33:22.736Z,97245.69
2022-08-20T14:35:51.191Z,97245.03
2022-08-20T14:38:21.068Z,97246.06
2022-08-20T14:40:50.413Z,97250.41
2022-08-20T14:43:19.269Z,97259.63
2022-08-20T14:45:47.842Z,97271.38
2022-08-20T14:48:16.328Z,97271.75
2022-08-20T14:50:44.758Z,97274.44
2022-08-20T14:53:13.148Z,97282.66
2022-08-20T14:55:42.962Z,97287.19
2022-08-20T14:58:13.206Z,97282.66
2022-08-20T15:00:42.947Z,97276.47
2022-08-20T15:03:13.367Z,97278.94
2022-08-20T15:05:42.009Z,97273.59
2022-08-20T15:08:11.021Z,97266.41
2022-08-20T15:10:40.245Z,97264.53
2022-08-20T15:13:10.208Z,97272.56
2022-08-20T15:15:39.416Z,97265.38
2022-08-20T15:18:08.338Z,97269.91
2022-08-20T15:20:37.955Z,97271.13
2022-08-20T15:23:07.308Z,97286.22
2022-08-20T15:25:37.901Z,97291.44
2022-08-20T15:28:08.841Z,97281.13
2022-08-20T15:30:39.784Z,97283.53
2022-08-20T15:33:08.467Z,97273.59
2022-08-20T15:35:37.316Z,97270.06
2022-08-20T15:38:05.745Z,97271.94
2022-08-20T15:40:34.252Z,97272.31
2022-08-20T15:43:03.935Z,97273.13
2022-08-20T15:45:33.278Z,97276.81
2022-08-20T15:48:09.436Z,97278.28
2022-08-20T15:50:57.813Z,97275.63
2022-08-20T15:53:30.544Z,97280.97
2022-08-20T15:56:06.114Z,97288.16
2022-08-20T15:58:40.987Z,97290.00
2022-08-20T16:01:24.226Z,97301.53
2022-08-20T16:04:11.641Z,97298.03
2022-08-20T16:06:41.101Z,97296.38
2022-08-20T16:09:22.904Z,97296.38
2022-08-20T16:11:53.506Z,97301.91
2022-08-20T16:14:23.581Z,97293.22
2022-08-20T16:17:01.239Z,97300.41
2022-08-20T16:19:40.872Z,97287.22
2022-08-20T16:22:12.588Z,97291.09
2022-08-20T16:24:41.036Z,97294.41
2022-08-20T16:27:14.648Z,97308.81
2022-08-20T16:29:52.042Z,97303.47
2022-08-20T16:32:35.053Z,97310.47
2022-08-20T16:35:29.437Z,97315.00
2022-08-20T16:38:03.869Z,97324.50
2022-08-20T16:40:34.902Z,97322.50
2022-08-20T16:43:06.089Z,97319.97
2022-08-20T16:45:38.296Z,97319.97
2022-08-20T16:48:12.436Z,97319.13
2022-08-20T16:50:49.209Z,97312.97
2022-08-20T16:53:20.735Z,97317.47
2022-08-20T16:55:49.249Z,97316.66
2022-08-20T16:58:17.891Z,97318.69
2022-08-20T17:00:46.444Z,97322.56
2022-08-20T17:03:33.535Z,97322.09
2022-08-20T17:06:17.079Z,97321.91
2022-08-20T17:08:50.818Z,97322.75
2022-08-20T17:11:25.721Z,97324.41
2022-08-20T17:14:05.933Z,97321.28
2022-08-20T17:16:36.168Z,97328.28
2022-08-20T17:19:10.560Z,97319.44
2022-08-20T17:21:41.114Z,97327.44
2022-08-20T17:24:16.844Z,97326.63
2022-08-20T17:26:47.168Z,97328.47
2022-08-20T17:29:19.212Z,97328.47
2022-08-20T17:31:50.309Z,97325.16
2022-08-20T17:34:22.421Z,97314.63
2022-08-20T17:36:56.930Z,97316.47
2022-08-20T17:39:27.404Z,97321.38
2022-08-20T17:42:04.513Z,97325.06
2022-08-20T17:44:37.776Z,97328.75
2022-08-20T17:47:12.343Z,97326.06
2022-08-20T17:49:44.857Z,97322.38
2022-08-20T17:52:32.648Z,97327.91
2022-08-20T17:55:02.887Z,97324.41
2022-08-20T17:57:36.867Z,97324.41
2022-08-20T18:00:09.757Z,97332.44
2022-08-20T18:02:38.819Z,97332.25
2022-08-20T18:05:12.101Z,97340.28
2022-08-20T18:07:55.242Z,97333.44
2022-08-20T18:10:28.234Z,97335.94
2022-08-20T18:13:00.021Z,97340.47
2022-08-20T18:15:31.268Z,97336.78
2022-08-20T18:18:11.108Z,97336.94
2022-08-20T18:21:01.004Z,97334.47
2022-08-20T18:23:32.475Z,97332.81
2022-08-20T18:26:05.549Z,97341.84
2022-08-20T18:28:40.881Z,97336.50
2022-08-20T18:31:10.502Z,97341.00
2022-08-20T18:33:42.035Z,97345.53
2022-08-20T18:36:13.605Z,97343.03
2022-08-20T18:38:43.821Z,97345.44
2022-08-20T18:41:15.895Z,97348.19
2022-08-20T18:43:44.821Z,97350.69
2022-08-20T18:46:21.031Z,97353.38
2022-08-20T18:48:56.373Z,97352.34
2022-08-20T18:51:30.161Z,97351.53
2022-08-20T18:54:00.155Z,97344.31
2022-08-20T18:56:37.457Z,97346.16
2022-08-20T18:59:11.332Z,97342.84
2022-08-20T19:01:41.549Z,97344.50
2022-08-20T19:04:27.794Z,97349.03
2022-08-20T19:06:59.075Z,97346.34
2022-08-20T19:09:57.321Z,97342.66
2022-08-20T19:12:39.233Z,97343.69
2022-08-20T19:15:09.334Z,97354.38
2022-08-20T19:18:01.913Z,97351.53
2022-08-20T19:20:33.513Z,97349.03
2022-08-20T19:23:06.816Z,97357.06
2022-08-20T19:25:40.227Z,97355.22
2022-08-20T19:28:18.865Z,97351.53
2022-08-20T19:30:47.325Z,97352.53
2022-08-20T19:33:16.140Z,97354.38
2022-08-20T19:35:48.082Z,97359.91
2022-08-20T19:38:17.626Z,97359.09
2022-08-20T19:40:47.510Z,97359.91
2022-08-20T19:43:21.711Z,97351.06
2022-08-20T19:45:54.231Z,97354.75
2022-08-20T19:48:32.767Z,97346.72
2022-08-20T19:51:07.913Z,97348.38
2022-08-20T19:53:38.610Z,97344.88
2022-08-20T19:56:11.943Z,97344.06
2022-08-20T19:58:40.665Z,97337.88
2022-08-20T20:01:11.952Z,97340.72
2022-08-20T20:03:40.553Z,97339.91
2022-08-20T20:06:17.249Z,97338.88
2022-08-20T20:08:51.777Z,97337.22
2022-08-20T20:11:24.678Z,97337.22
2022-08-20T20:13:53.786Z,97338.06
2022-08-20T20:16:22.739Z,97336.59
2022-08-20T20:19:15.654Z,97348.94
2022-08-20T20:21:43.032Z,97332.06
2022-08-20T20:24:12.275Z,97338.44
2022-08-20T20:26:42.670Z,97333.91
2022-08-20T20:29:13.688Z,97331.88
2022-08-20T20:31:50.677Z,97337.41
2022-08-20T20:34:25.889Z,97345.63
2022-08-20T20:37:05.006Z,97341.09
2022-08-20T20:39:36.055Z,97343.97
2022-08-20T20:42:08.422Z,97345.16
2022-08-20T20:44:38.269Z,97340.63
2022-08-20T20:47:09.716Z,97335.28
2022-08-20T20:49:49.207Z,97332.44
2022-08-20T20:52:23.690Z,97338.81
2022-08-20T20:54:53.336Z,97336.13
2022-08-20T20:57:38.786Z,97333.63
2022-08-20T21:00:12.036Z,97334.47
2022-08-20T21:02:40.723Z,97326.63
2022-08-20T21:05:10.477Z,97325.97
2022-08-20T21:07:46.189Z,97327.63
2022-08-20T21:10:24.452Z,97319.63
2022-08-20T21:12:55.193Z,97328.00
2022-08-20T21:15:25.585Z,97325.53
2022-08-20T21:17:54.902Z,97327.00
2022-08-20T21:20:23.895Z,97324.03
2022-08-20T21:22:52.406Z,97327.91
2022-08-20T21:25:23.815Z,97322.94
2022-08-20T21:27:54.868Z,97321.47
2022-08-20T21:30:24.447Z,97317.13
2022-08-20T21:32:53.252Z,97332.16
2022-08-20T21:35:21.992Z,97337.59
2022-08-20T21:37:50.538Z,97339.44
2022-08-20T21:40:21.739Z,97343.59
2022-08-20T21:42:51.345Z,97338.25
2022-08-20T21:45:21.483Z,97329.75
2022-08-20T21:47:49.941Z,97333.25
2022-08-20T21:50:19.078Z,97333.25
2022-08-20T21:52:59.369Z,97332.44
2022-08-20T21:55:30.052Z,97332.25
2022-08-20T21:57:58.860Z,97339.81
2022-08-20T22:01:02.669Z,97323.94
2022-08-20T22:03:33.841Z,97331.97
2022-08-20T22:06:07.061Z,97333.81
2022-08-20T22:08:35.773Z,97330.13
2022-08-20T22:11:06.127Z,97330.97
2022-08-20T22:13:35.177Z,97329.94
2022-08-20T22:16:06.859Z,97328.28
2022-08-20T22:18:36.092Z,97321.09
2022-08-20T22:21:08.332Z,97323.78
2022-08-20T22:23:39.954Z,97321.28
2022-08-20T22:26:08.944Z,97329.31
2022-08-20T22:28:38.661Z,97323.50
2022-08-20T22:31:08.726Z,97323.41
2022-08-20T22:33:39.855Z,97328.38
2022-08-20T22:36:08.793Z,97326.53
2022-08-20T22:38:37.221Z,97333.53
2022-08-20T22:41:09.531Z,97318.34
2022-08-20T22:43:46.233Z,97312.97
2022-08-20T22:46:28.554Z,97317.50
2022-08-20T22:48:57.331Z,97313.81
2022-08-20T22:51:30.249Z,97313.81
2022-08-20T22:53:59.568Z,97307.44
2022-08-20T22:56:29.913Z,97311.13
2022-08-20T22:58:59.448Z,97306.25
2022-08-20T23:01:30.014Z,97310.78
2022-08-20T23:03:58.963Z,97302.75
2022-08-20T23:06:28.197Z,97309.94
2022-08-20T23:08:56.945Z,97304.59
2022-08-20T23:11:25.360Z,97307.06
2022-08-20T23:13:53.769Z,97298.03
2022-08-20T23:16:22.184Z,97304.41
2022-08-20T23:18:52.254Z,97302.75
2022-08-20T23:21:20.758Z,97293.91
2022-08-20T23:23:49.209Z,97302.75
2022-08-20T23:26:21.181Z,97304.59
2022-08-20T23:28:49.784Z,97303.38
2022-08-20T23:31:18.659Z,97307.06
2022-08-20T23:33:47.120Z,97309.75
2022-08-20T23:36:17.867Z,97320.44
2022-08-20T23:38:46.619Z,97320.44
2022-08-20T23:41:15.206Z,97307.91
2022-08-20T23:43:44.112Z,97304.41
2022-08-20T23:46:13.213Z,97293.72
2022-08-20T23:48:41.635Z,97295.38
2022-08-20T23:51:10.245Z,97292.69
2022-08-20T23:53:40.068Z,97290.84
2022-08-20T23:56:08.605Z,97277.66
2022-08-20T23:58:37.454Z,97282.19
